Leo+barja 1556 — YP3204 — position and weather

sailwx.info

Track history (hours):
 
Tides and Currents Weather Stations Pressure Air Temp Water Temp Dewpoint Dewpoint Depression Visibility Wind Speed Wind Dir Waves Ship Positions

Leo+barja 1556

Last reported at 2017-Dec-13 14:48 UTC. Time now 2017-Dec-15 21:20 UTC.
Position N 44°19' E 028°03'.

Length 77 m; draft 0.2 m.

Type: Ship. MMSI: 264153204.

Date/timePositionNaut miles runAvg speedWind from/ knotsBaromVisibWave heightAir tempDewpointWater temp
2017-Dec-13 14:48N 44°19' E 028°03'0 0.7
2017-Dec-13 14:23N 44°18' E 028°03'2 5.0
2017-Dec-13 13:59N 44°17' E 028°05'3 5.4
2017-Dec-13 13:30N 44°16' E 028°08'3 5.5
2017-Dec-13 13:00N 44°16' E 028°12'3 5.5
2017-Dec-13 12:30N 44°15' E 028°16'3 5.5
2017-Dec-13 12:00N 44°15' E 028°20'3 5.1
2017-Dec-13 11:30N 44°13' E 028°23'3 5.4
2017-Dec-13 11:00N 44°11' E 028°24'7 5.1
2017-Dec-13 09:40N 44°06' E 028°30'1 5.5
2017-Dec-13 09:26N 44°06' E 028°32'2 5.4
2017-Dec-13 09:00N 44°06' E 028°35'1 2.7
2017-Dec-13 08:30N 44°06' E 028°37'1 2.5
2017-Dec-13 08:00N 44°07' E 028°39'1 2.0
2017-Dec-13 07:30N 44°08' E 028°39'0 0.0
2017-Dec-13 07:00N 44°08' E 028°39'0 0.0
2017-Dec-13 06:30N 44°08' E 028°39'0 0.0
2017-Dec-13 06:00N 44°08' E 028°39'1 2.1
2017-Dec-13 05:30N 44°09' E 028°40'1 1.9
2017-Dec-13 05:00N 44°09' E 028°39'0 0.0
2017-Dec-13 04:30N 44°09' E 028°39'0 0.0
2017-Dec-13 04:00N 44°09' E 028°39'0 0.0
2017-Dec-13 03:30N 44°09' E 028°39'0 0.0
2017-Dec-13 03:00N 44°09' E 028°39'0 0.0
2017-Dec-13 02:30N 44°09' E 028°39'0 0.0
2017-Dec-13 02:00N 44°09' E 028°39'0 0.0
2017-Dec-13 01:30N 44°09' E 028°39'0 0.0
2017-Dec-13 01:00N 44°09' E 028°39'0 0.0
2017-Dec-13 00:30N 44°09' E 028°39'0 0.0
2017-Dec-13 00:00N 44°09' E 028°39'0 0.0
2017-Dec-12 23:30N 44°09' E 028°39'0 0.0
2017-Dec-12 23:00N 44°09' E 028°39'0 0.0
2017-Dec-12 22:30N 44°09' E 028°39'0 0.0
2017-Dec-12 22:00N 44°09' E 028°39'0 0.0
2017-Dec-12 21:30N 44°09' E 028°39'0 0.0
2017-Dec-12 21:00N 44°09' E 028°39'0 0.0
2017-Dec-12 20:30N 44°09' E 028°39'0 0.0
2017-Dec-12 20:00N 44°09' E 028°39'0 0.0
2017-Dec-12 19:30N 44°09' E 028°39'0 0.0
2017-Dec-12 19:00N 44°09' E 028°39'0 0.0
2017-Dec-12 18:30N 44°09' E 028°39'0 0.0
2017-Dec-12 18:00N 44°09' E 028°39'0 0.0
2017-Dec-12 17:30N 44°09' E 028°39'0 0.0
2017-Dec-12 17:00N 44°09' E 028°39'0 0.0
2017-Dec-12 16:30N 44°09' E 028°39'0 0.0
2017-Dec-12 16:00N 44°09' E 028°39'0 0.0
2017-Dec-12 15:30N 44°09' E 028°39'0 0.0
2017-Dec-12 15:00N 44°09' E 028°39'0 0.0
2017-Dec-12 14:30N 44°09' E 028°39'0 0.0
2017-Dec-12 14:00N 44°09' E 028°39'0 0.0
2017-Dec-12 13:30N 44°09' E 028°39'0 0.0
2017-Dec-12 13:00N 44°09' E 028°39'0 0.0
2017-Dec-12 12:30N 44°09' E 028°39'0 0.0
2017-Dec-12 12:00N 44°09' E 028°39'0 0.0
2017-Dec-12 11:30N 44°09' E 028°39'0 0.0
2017-Dec-12 11:00N 44°09' E 028°39'0 0.0
2017-Dec-12 10:30N 44°09' E 028°39'0 0.0
2017-Dec-12 10:00N 44°09' E 028°39'0 0.0
2017-Dec-12 09:30N 44°09' E 028°39'0 0.1
2017-Dec-12 09:00N 44°09' E 028°39'0 0.0
2017-Dec-12 08:30N 44°09' E 028°39'0 0.0
2017-Dec-12 08:00N 44°09' E 028°39'0 0.0
2017-Dec-12 07:30N 44°09' E 028°39'0 0.0
2017-Dec-12 07:00N 44°09' E 028°39'0 0.0
2017-Dec-12 06:30N 44°09' E 028°39'0 0.0
2017-Dec-12 06:00N 44°09' E 028°39'0 0.0
2017-Dec-12 05:30N 44°09' E 028°39'0 0.0
2017-Dec-12 05:00N 44°09' E 028°39'0 0.0
2017-Dec-12 04:30N 44°09' E 028°39'0 0.0
2017-Dec-12 04:00N 44°09' E 028°39'0 0.0
2017-Dec-12 03:30N 44°09' E 028°39'0 0.0
2017-Dec-12 03:00N 44°09' E 028°39'0 0.0
2017-Dec-12 02:30N 44°09' E 028°39'0 0.0
2017-Dec-12 02:00N 44°09' E 028°39'0 0.0
2017-Dec-12 01:30N 44°09' E 028°39'0 0.0
2017-Dec-12 01:00N 44°09' E 028°39'0 0.0
2017-Dec-12 00:30N 44°09' E 028°39'0 0.0
2017-Dec-12 00:00N 44°09' E 028°39'0 0.0
2017-Dec-11 23:30N 44°09' E 028°39'0 0.0
2017-Dec-11 23:00N 44°09' E 028°39'0 0.0
2017-Dec-11 22:30N 44°09' E 028°39'0 0.0
2017-Dec-11 22:00N 44°09' E 028°39'0 0.0
2017-Dec-11 21:30N 44°09' E 028°39'0 0.0
2017-Dec-11 21:00N 44°09' E 028°39'0 0.0
2017-Dec-11 20:30N 44°09' E 028°39'0 0.0
2017-Dec-11 20:00N 44°09' E 028°39'0 0.0
2017-Dec-11 19:30N 44°09' E 028°39'0 0.0
2017-Dec-11 19:00N 44°09' E 028°39'0 0.0
2017-Dec-11 18:30N 44°09' E 028°39'0 0.0
2017-Dec-11 18:00N 44°09' E 028°39'0 0.0
2017-Dec-11 17:30N 44°09' E 028°39'0 0.0
2017-Dec-11 17:00N 44°09' E 028°39'0 0.0
2017-Dec-11 16:30N 44°09' E 028°39'0 0.0
2017-Dec-11 16:00N 44°09' E 028°39'0 0.0
2017-Dec-11 15:30N 44°09' E 028°39'0 0.0
2017-Dec-11 15:00N 44°09' E 028°39'1 2.1
2017-Dec-11 14:30N 44°08' E 028°39'1 2.9
2017-Dec-11 14:00N 44°07' E 028°39'0 0.2
2017-Dec-11 13:30N 44°07' E 028°39'1 2.8
2017-Dec-11 13:00N 44°06' E 028°37'0 0.0
2017-Dec-11 12:30N 44°06' E 028°37'0 0.1
2017-Dec-11 12:00N 44°06' E 028°37'0 0.8
2017-Dec-11 11:30N 44°06' E 028°37'0 0.0
2017-Dec-11 11:00N 44°06' E 028°37'0 0.0
2017-Dec-11 10:30N 44°06' E 028°37'0 0.0
2017-Dec-11 10:00N 44°06' E 028°37'0 0.0
2017-Dec-11 09:30N 44°06' E 028°37'0 0.0
2017-Dec-11 09:00N 44°06' E 028°37'0 0.0
2017-Dec-11 08:30N 44°06' E 028°37'0 0.0
2017-Dec-11 08:00N 44°06' E 028°37'1 2.2
2017-Dec-11 07:30N 44°06' E 028°35'7 3.4
2017-Dec-11 05:20N 44°09' E 028°26'1 4.0
2017-Dec-11 05:00N 44°10' E 028°25'1 2.5
2017-Dec-11 04:30N 44°11' E 028°24'0 0.0
2017-Dec-11 03:59N 44°11' E 028°24'0 0.0
2017-Dec-11 03:28N 44°11' E 028°24'0 0.0
2017-Dec-11 03:00N 44°11' E 028°24'0 0.0
2017-Dec-11 02:30N 44°11' E 028°24'0 0.0
2017-Dec-11 02:00N 44°11' E 028°24'0 0.0
2017-Dec-11 01:30N 44°11' E 028°24'0 0.0
2017-Dec-11 00:53N 44°11' E 028°24'0 0.0
2017-Dec-11 00:30N 44°11' E 028°24'0 0.0
2017-Dec-11 00:00N 44°11' E 028°24'0 0.0
2017-Dec-10 23:21N 44°11' E 028°24'0 0.0
2017-Dec-10 23:00N 44°11' E 028°24'0 0.0
2017-Dec-10 22:30N 44°11' E 028°24'0 0.0
2017-Dec-10 22:00N 44°11' E 028°24'0 0.0
2017-Dec-10 21:30N 44°11' E 028°24'0 0.0
2017-Dec-10 20:59N 44°11' E 028°24'0 0.0
2017-Dec-10 20:30N 44°11' E 028°24'0 0.0
2017-Dec-10 19:59N 44°11' E 028°24'0 0.0
2017-Dec-10 19:29N 44°11' E 028°24'0 0.0
2017-Dec-10 19:00N 44°11' E 028°24'0 0.0
2017-Dec-10 18:30N 44°11' E 028°24'0 0.0
2017-Dec-10 17:58N 44°11' E 028°24'0 0.0
2017-Dec-10 17:30N 44°11' E 028°24'0 0.0
2017-Dec-10 17:00N 44°11' E 028°24'0 0.0
2017-Dec-10 16:30N 44°11' E 028°24'0 0.1
2017-Dec-10 16:00N 44°11' E 028°24'0 0.2
2017-Dec-10 15:30N 44°11' E 028°24'1 2.5
2017-Dec-10 15:00N 44°12' E 028°23'2 3.8
2017-Dec-10 14:30N 44°14' E 028°22'2 3.7
2017-Dec-10 14:00N 44°15' E 028°20'2 3.9
2017-Dec-10 13:30N 44°15' E 028°17'2 3.8
2017-Dec-10 13:00N 44°15' E 028°14'2 3.8
2017-Dec-10 12:29N 44°16' E 028°12'2 3.7
2017-Dec-10 11:58N 44°16' E 028°09'2 3.7
2017-Dec-10 11:30N 44°16' E 028°07'  
Track history (hours):
 
Tides and Currents Weather Stations Pressure Air Temp Water Temp Dewpoint Dewpoint Depression Visibility Wind Speed Wind Dir Waves Ship Positions

Leo+barja 1556

Last reported at 2017-Dec-13 14:48 UTC. Time now 2017-Dec-15 21:20 UTC.
Position N 44°19' E 028°03'.

Length 77 m; draft 0.2 m.

Type: Ship. MMSI: 264153204.

Date/timePositionNaut miles runAvg speedWind from/ knotsBaromVisibWave heightAir tempDewpointWater temp
2017-Dec-13 14:48N 44°19' E 028°03'0 0.7
2017-Dec-13 14:23N 44°18' E 028°03'2 5.0
2017-Dec-13 13:59N 44°17' E 028°05'3 5.4
2017-Dec-13 13:30N 44°16' E 028°08'3 5.5
2017-Dec-13 13:00N 44°16' E 028°12'3 5.5
2017-Dec-13 12:30N 44°15' E 028°16'3 5.5
2017-Dec-13 12:00N 44°15' E 028°20'3 5.1
2017-Dec-13 11:30N 44°13' E 028°23'3 5.4
2017-Dec-13 11:00N 44°11' E 028°24'7 5.1
2017-Dec-13 09:40N 44°06' E 028°30'1 5.5
2017-Dec-13 09:26N 44°06' E 028°32'2 5.4
2017-Dec-13 09:00N 44°06' E 028°35'1 2.7
2017-Dec-13 08:30N 44°06' E 028°37'1 2.5
2017-Dec-13 08:00N 44°07' E 028°39'1 2.0
2017-Dec-13 07:30N 44°08' E 028°39'0 0.0
2017-Dec-13 07:00N 44°08' E 028°39'0 0.0
2017-Dec-13 06:30N 44°08' E 028°39'0 0.0
2017-Dec-13 06:00N 44°08' E 028°39'1 2.1
2017-Dec-13 05:30N 44°09' E 028°40'1 1.9
2017-Dec-13 05:00N 44°09' E 028°39'0 0.0
2017-Dec-13 04:30N 44°09' E 028°39'0 0.0
2017-Dec-13 04:00N 44°09' E 028°39'0 0.0
2017-Dec-13 03:30N 44°09' E 028°39'0 0.0
2017-Dec-13 03:00N 44°09' E 028°39'0 0.0
2017-Dec-13 02:30N 44°09' E 028°39'0 0.0
2017-Dec-13 02:00N 44°09' E 028°39'0 0.0
2017-Dec-13 01:30N 44°09' E 028°39'0 0.0
2017-Dec-13 01:00N 44°09' E 028°39'0 0.0
2017-Dec-13 00:30N 44°09' E 028°39'0 0.0
2017-Dec-13 00:00N 44°09' E 028°39'0 0.0
2017-Dec-12 23:30N 44°09' E 028°39'0 0.0
2017-Dec-12 23:00N 44°09' E 028°39'0 0.0
2017-Dec-12 22:30N 44°09' E 028°39'0 0.0
2017-Dec-12 22:00N 44°09' E 028°39'0 0.0
2017-Dec-12 21:30N 44°09' E 028°39'0 0.0
2017-Dec-12 21:00N 44°09' E 028°39'0 0.0
2017-Dec-12 20:30N 44°09' E 028°39'0 0.0
2017-Dec-12 20:00N 44°09' E 028°39'0 0.0
2017-Dec-12 19:30N 44°09' E 028°39'0 0.0
2017-Dec-12 19:00N 44°09' E 028°39'0 0.0
2017-Dec-12 18:30N 44°09' E 028°39'0 0.0
2017-Dec-12 18:00N 44°09' E 028°39'0 0.0
2017-Dec-12 17:30N 44°09' E 028°39'0 0.0
2017-Dec-12 17:00N 44°09' E 028°39'0 0.0
2017-Dec-12 16:30N 44°09' E 028°39'0 0.0
2017-Dec-12 16:00N 44°09' E 028°39'0 0.0
2017-Dec-12 15:30N 44°09' E 028°39'0 0.0
2017-Dec-12 15:00N 44°09' E 028°39'0 0.0
2017-Dec-12 14:30N 44°09' E 028°39'0 0.0
2017-Dec-12 14:00N 44°09' E 028°39'0 0.0
2017-Dec-12 13:30N 44°09' E 028°39'0 0.0
2017-Dec-12 13:00N 44°09' E 028°39'0 0.0
2017-Dec-12 12:30N 44°09' E 028°39'0 0.0
2017-Dec-12 12:00N 44°09' E 028°39'0 0.0
2017-Dec-12 11:30N 44°09' E 028°39'0 0.0
2017-Dec-12 11:00N 44°09' E 028°39'0 0.0
2017-Dec-12 10:30N 44°09' E 028°39'0 0.0
2017-Dec-12 10:00N 44°09' E 028°39'0 0.0
2017-Dec-12 09:30N 44°09' E 028°39'0 0.1
2017-Dec-12 09:00N 44°09' E 028°39'0 0.0
2017-Dec-12 08:30N 44°09' E 028°39'0 0.0
2017-Dec-12 08:00N 44°09' E 028°39'0 0.0
2017-Dec-12 07:30N 44°09' E 028°39'0 0.0
2017-Dec-12 07:00N 44°09' E 028°39'0 0.0
2017-Dec-12 06:30N 44°09' E 028°39'0 0.0
2017-Dec-12 06:00N 44°09' E 028°39'0 0.0
2017-Dec-12 05:30N 44°09' E 028°39'0 0.0
2017-Dec-12 05:00N 44°09' E 028°39'0 0.0
2017-Dec-12 04:30N 44°09' E 028°39'0 0.0
2017-Dec-12 04:00N 44°09' E 028°39'0 0.0
2017-Dec-12 03:30N 44°09' E 028°39'0 0.0
2017-Dec-12 03:00N 44°09' E 028°39'0 0.0
2017-Dec-12 02:30N 44°09' E 028°39'0 0.0
2017-Dec-12 02:00N 44°09' E 028°39'0 0.0
2017-Dec-12 01:30N 44°09' E 028°39'0 0.0
2017-Dec-12 01:00N 44°09' E 028°39'0 0.0
2017-Dec-12 00:30N 44°09' E 028°39'0 0.0
2017-Dec-12 00:00N 44°09' E 028°39'0 0.0
2017-Dec-11 23:30N 44°09' E 028°39'0 0.0
2017-Dec-11 23:00N 44°09' E 028°39'0 0.0
2017-Dec-11 22:30N 44°09' E 028°39'0 0.0
2017-Dec-11 22:00N 44°09' E 028°39'0 0.0
2017-Dec-11 21:30N 44°09' E 028°39'0 0.0
2017-Dec-11 21:00N 44°09' E 028°39'0 0.0
2017-Dec-11 20:30N 44°09' E 028°39'0 0.0
2017-Dec-11 20:00N 44°09' E 028°39'0 0.0
2017-Dec-11 19:30N 44°09' E 028°39'0 0.0
2017-Dec-11 19:00N 44°09' E 028°39'0 0.0
2017-Dec-11 18:30N 44°09' E 028°39'0 0.0
2017-Dec-11 18:00N 44°09' E 028°39'0 0.0
2017-Dec-11 17:30N 44°09' E 028°39'0 0.0
2017-Dec-11 17:00N 44°09' E 028°39'0 0.0
2017-Dec-11 16:30N 44°09' E 028°39'0 0.0
2017-Dec-11 16:00N 44°09' E 028°39'0 0.0
2017-Dec-11 15:30N 44°09' E 028°39'0 0.0
2017-Dec-11 15:00N 44°09' E 028°39'1 2.1
2017-Dec-11 14:30N 44°08' E 028°39'1 2.9
2017-Dec-11 14:00N 44°07' E 028°39'0 0.2
2017-Dec-11 13:30N 44°07' E 028°39'1 2.8
2017-Dec-11 13:00N 44°06' E 028°37'0 0.0
2017-Dec-11 12:30N 44°06' E 028°37'0 0.1
2017-Dec-11 12:00N 44°06' E 028°37'0 0.8
2017-Dec-11 11:30N 44°06' E 028°37'0 0.0
2017-Dec-11 11:00N 44°06' E 028°37'0 0.0
2017-Dec-11 10:30N 44°06' E 028°37'0 0.0
2017-Dec-11 10:00N 44°06' E 028°37'0 0.0
2017-Dec-11 09:30N 44°06' E 028°37'0 0.0
2017-Dec-11 09:00N 44°06' E 028°37'0 0.0
2017-Dec-11 08:30N 44°06' E 028°37'0 0.0
2017-Dec-11 08:00N 44°06' E 028°37'1 2.2
2017-Dec-11 07:30N 44°06' E 028°35'7 3.4
2017-Dec-11 05:20N 44°09' E 028°26'1 4.0
2017-Dec-11 05:00N 44°10' E 028°25'1 2.5
2017-Dec-11 04:30N 44°11' E 028°24'0 0.0
2017-Dec-11 03:59N 44°11' E 028°24'0 0.0
2017-Dec-11 03:28N 44°11' E 028°24'0 0.0
2017-Dec-11 03:00N 44°11' E 028°24'0 0.0
2017-Dec-11 02:30N 44°11' E 028°24'0 0.0
2017-Dec-11 02:00N 44°11' E 028°24'0 0.0
2017-Dec-11 01:30N 44°11' E 028°24'0 0.0
2017-Dec-11 00:53N 44°11' E 028°24'0 0.0
2017-Dec-11 00:30N 44°11' E 028°24'0 0.0
2017-Dec-11 00:00N 44°11' E 028°24'0 0.0
2017-Dec-10 23:21N 44°11' E 028°24'0 0.0
2017-Dec-10 23:00N 44°11' E 028°24'0 0.0
2017-Dec-10 22:30N 44°11' E 028°24'0 0.0
2017-Dec-10 22:00N 44°11' E 028°24'0 0.0
2017-Dec-10 21:30N 44°11' E 028°24'0 0.0
2017-Dec-10 20:59N 44°11' E 028°24'0 0.0
2017-Dec-10 20:30N 44°11' E 028°24'0 0.0
2017-Dec-10 19:59N 44°11' E 028°24'0 0.0
2017-Dec-10 19:29N 44°11' E 028°24'0 0.0
2017-Dec-10 19:00N 44°11' E 028°24'0 0.0
2017-Dec-10 18:30N 44°11' E 028°24'0 0.0
2017-Dec-10 17:58N 44°11' E 028°24'0 0.0
2017-Dec-10 17:30N 44°11' E 028°24'0 0.0
2017-Dec-10 17:00N 44°11' E 028°24'0 0.0
2017-Dec-10 16:30N 44°11' E 028°24'0 0.1
2017-Dec-10 16:00N 44°11' E 028°24'0 0.2
2017-Dec-10 15:30N 44°11' E 028°24'1 2.5
2017-Dec-10 15:00N 44°12' E 028°23'2 3.8
2017-Dec-10 14:30N 44°14' E 028°22'2 3.7
2017-Dec-10 14:00N 44°15' E 028°20'2 3.9
2017-Dec-10 13:30N 44°15' E 028°17'2 3.8
2017-Dec-10 13:00N 44°15' E 028°14'2 3.8
2017-Dec-10 12:29N 44°16' E 028°12'2 3.7
2017-Dec-10 11:58N 44°16' E 028°09'2 3.7
2017-Dec-10 11:30N 44°16' E 028°07'  

Dump ship's entire track history